sensor_id;sensor_type;location;lat;lon;timestamp;temperature;humidity
38458;DHT22;24239;48.058;10.486;2022-09-09T00:04:58;11.80;99.90
38458;DHT22;24239;48.058;10.486;2022-09-09T00:07:51;11.70;99.90
38458;DHT22;24239;48.058;10.486;2022-09-09T00:10:36;11.70;99.90
38458;DHT22;24239;48.058;10.486;2022-09-09T00:13:31;11.80;99.90
38458;DHT22;24239;48.058;10.486;2022-09-09T00:21:36;11.80;99.90
38458;DHT22;24239;48.058;10.486;2022-09-09T00:26:55;11.90;99.90
38458;DHT22;24239;48.058;10.486;2022-09-09T00:29:32;11.90;99.90
38458;DHT22;24239;48.058;10.486;2022-09-09T00:32:09;12.00;99.90
38458;DHT22;24239;48.058;10.486;2022-09-09T00:34:39;12.10;99.90
38458;DHT22;24239;48.058;10.486;2022-09-09T00:37:08;12.20;99.90
38458;DHT22;24239;48.058;10.486;2022-09-09T00:39:46;12.20;99.90
38458;DHT22;24239;48.058;10.486;2022-09-09T00:42:26;12.20;99.90
38458;DHT22;24239;48.058;10.486;2022-09-09T00:45:10;12.20;99.90
38458;DHT22;24239;48.058;10.486;2022-09-09T00:47:51;12.20;99.90
38458;DHT22;24239;48.058;10.486;2022-09-09T00:56:09;12.30;99.90
38458;DHT22;24239;48.058;10.486;2022-09-09T00:58:37;12.30;99.90
38458;DHT22;24239;48.058;10.486;2022-09-09T01:01:08;12.30;99.90
38458;DHT22;24239;48.058;10.486;2022-09-09T01:09:05;12.40;99.90
38458;DHT22;24239;48.058;10.486;2022-09-09T01:17:33;12.40;99.90
38458;DHT22;24239;48.058;10.486;2022-09-09T01:20:12;12.40;99.90
38458;DHT22;24239;48.058;10.486;2022-09-09T01:23:13;12.30;99.90
38458;DHT22;24239;48.058;10.486;2022-09-09T01:28:48;12.30;99.90
38458;DHT22;24239;48.058;10.486;2022-09-09T01:31:23;12.20;99.90
38458;DHT22;24239;48.058;10.486;2022-09-09T01:33:52;12.20;99.90
38458;DHT22;24239;48.058;10.486;2022-09-09T01:36:47;12.20;99.90
38458;DHT22;24239;48.058;10.486;2022-09-09T01:39:17;12.10;99.90
38458;DHT22;24239;48.058;10.486;2022-09-09T01:41:43;12.10;99.90
38458;DHT22;24239;48.058;10.486;2022-09-09T01:44:09;12.00;99.90
38458;DHT22;24239;48.058;10.486;2022-09-09T01:46:36;11.90;99.90
38458;DHT22;24239;48.058;10.486;2022-09-09T01:49:03;11.90;99.90
38458;DHT22;24239;48.058;10.486;2022-09-09T01:51:34;11.90;99.90
38458;DHT22;24239;48.058;10.486;2022-09-09T01:54:01;11.80;99.90
38458;DHT22;24239;48.058;10.486;2022-09-09T02:05:00;11.70;99.90
38458;DHT22;24239;48.058;10.486;2022-09-09T02:07:43;11.80;99.90
38458;DHT22;24239;48.058;10.486;2022-09-09T02:12:48;11.70;99.90
38458;DHT22;24239;48.058;10.486;2022-09-09T02:15:30;11.70;99.90
38458;DHT22;24239;48.058;10.486;2022-09-09T02:17:58;11.80;99.90
38458;DHT22;24239;48.058;10.486;2022-09-09T02:20:28;11.80;99.90
38458;DHT22;24239;48.058;10.486;2022-09-09T02:22:56;11.80;99.90
38458;DHT22;24239;48.058;10.486;2022-09-09T02:25:25;11.80;99.90
38458;DHT22;24239;48.058;10.486;2022-09-09T02:27:51;11.90;99.90
38458;DHT22;24239;48.058;10.486;2022-09-09T02:30:18;11.80;99.90
38458;DHT22;24239;48.058;10.486;2022-09-09T02:32:47;11.80;99.90
38458;DHT22;24239;48.058;10.486;2022-09-09T02:35:17;11.80;99.90
38458;DHT22;24239;48.058;10.486;2022-09-09T02:37:45;11.70;99.90
38458;DHT22;24239;48.058;10.486;2022-09-09T02:40:15;11.70;99.90
38458;DHT22;24239;48.058;10.486;2022-09-09T02:42:47;11.70;99.90
38458;DHT22;24239;48.058;10.486;2022-09-09T02:45:17;11.60;99.90
38458;DHT22;24239;48.058;10.486;2022-09-09T02:50:33;11.60;99.90
38458;DHT22;24239;48.058;10.486;2022-09-09T02:53:10;11.50;99.90
38458;DHT22;24239;48.058;10.486;2022-09-09T02:58:10;11.50;99.90
38458;DHT22;24239;48.058;10.486;2022-09-09T03:00:39;11.50;99.90
38458;DHT22;24239;48.058;10.486;2022-09-09T03:03:08;11.50;99.90
38458;DHT22;24239;48.058;10.486;2022-09-09T03:05:35;11.30;99.90
38458;DHT22;24239;48.058;10.486;2022-09-09T03:08:02;11.50;99.90
38458;DHT22;24239;48.058;10.486;2022-09-09T03:10:28;11.50;99.90
38458;DHT22;24239;48.058;10.486;2022-09-09T03:12:54;11.50;99.90
38458;DHT22;24239;48.058;10.486;2022-09-09T03:15:21;11.50;99.90
38458;DHT22;24239;48.058;10.486;2022-09-09T03:17:47;11.50;99.90
38458;DHT22;24239;48.058;10.486;2022-09-09T03:20:13;11.50;99.90
38458;DHT22;24239;48.058;10.486;2022-09-09T03:22:39;11.50;99.90
38458;DHT22;24239;48.058;10.486;2022-09-09T03:25:05;11.50;99.90
38458;DHT22;24239;48.058;10.486;2022-09-09T03:27:31;11.50;99.90
38458;DHT22;24239;48.058;10.486;2022-09-09T03:29:58;11.50;99.90
38458;DHT22;24239;48.058;10.486;2022-09-09T03:32:24;11.50;99.90
38458;DHT22;24239;48.058;10.486;2022-09-09T03:34:51;11.50;99.90
38458;DHT22;24239;48.058;10.486;2022-09-09T03:37:21;11.50;99.90
38458;DHT22;24239;48.058;10.486;2022-09-09T03:39:48;11.50;99.90
38458;DHT22;24239;48.058;10.486;2022-09-09T03:42:15;11.50;99.90
38458;DHT22;24239;48.058;10.486;2022-09-09T03:44:45;11.50;99.90
38458;DHT22;24239;48.058;10.486;2022-09-09T03:47:18;11.50;99.90
38458;DHT22;24239;48.058;10.486;2022-09-09T03:49:45;11.50;99.90
38458;DHT22;24239;48.058;10.486;2022-09-09T03:52:11;11.50;99.90
38458;DHT22;24239;48.058;10.486;2022-09-09T03:54:37;11.40;99.90
38458;DHT22;24239;48.058;10.486;2022-09-09T03:57:03;11.50;99.90
38458;DHT22;24239;48.058;10.486;2022-09-09T03:59:30;11.50;99.90
38458;DHT22;24239;48.058;10.486;2022-09-09T04:01:56;11.50;99.90
38458;DHT22;24239;48.058;10.486;2022-09-09T04:04:22;11.60;99.90
38458;DHT22;24239;48.058;10.486;2022-09-09T04:06:48;11.60;99.90
38458;DHT22;24239;48.058;10.486;2022-09-09T04:09:14;11.70;99.90
38458;DHT22;24239;48.058;10.486;2022-09-09T04:11:40;11.90;99.90
38458;DHT22;24239;48.058;10.486;2022-09-09T04:14:06;11.90;99.90
38458;DHT22;24239;48.058;10.486;2022-09-09T04:16:33;12.10;99.90
38458;DHT22;24239;48.058;10.486;2022-09-09T04:18:59;12.20;99.90
38458;DHT22;24239;48.058;10.486;2022-09-09T04:21:26;12.30;99.90
38458;DHT22;24239;48.058;10.486;2022-09-09T04:23:54;12.40;99.90
38458;DHT22;24239;48.058;10.486;2022-09-09T04:26:20;12.50;99.90
38458;DHT22;24239;48.058;10.486;2022-09-09T04:28:46;12.60;99.90
38458;DHT22;24239;48.058;10.486;2022-09-09T04:31:22;12.70;99.90
38458;DHT22;24239;48.058;10.486;2022-09-09T04:33:49;12.70;99.90
38458;DHT22;24239;48.058;10.486;2022-09-09T04:36:16;12.80;99.90
38458;DHT22;24239;48.058;10.486;2022-09-09T04:38:43;12.80;99.90
38458;DHT22;24239;48.058;10.486;2022-09-09T04:41:10;12.90;99.90
38458;DHT22;24239;48.058;10.486;2022-09-09T04:43:37;12.90;99.90
38458;DHT22;24239;48.058;10.486;2022-09-09T04:46:04;12.90;99.90
38458;DHT22;24239;48.058;10.486;2022-09-09T04:48:30;12.90;99.90
38458;DHT22;24239;48.058;10.486;2022-09-09T04:51:02;12.90;99.90
38458;DHT22;24239;48.058;10.486;2022-09-09T04:53:30;13.00;99.90
38458;DHT22;24239;48.058;10.486;2022-09-09T04:56:13;13.00;99.90
38458;DHT22;24239;48.058;10.486;2022-09-09T04:58:40;13.00;99.90
38458;DHT22;24239;48.058;10.486;2022-09-09T05:01:14;13.10;99.90
38458;DHT22;24239;48.058;10.486;2022-09-09T05:03:41;13.10;99.90
38458;DHT22;24239;48.058;10.486;2022-09-09T05:06:11;13.10;99.90
38458;DHT22;24239;48.058;10.486;2022-09-09T05:08:41;13.10;99.90
38458;DHT22;24239;48.058;10.486;2022-09-09T05:11:33;13.20;99.90
38458;DHT22;24239;48.058;10.486;2022-09-09T05:14:01;13.10;99.90
38458;DHT22;24239;48.058;10.486;2022-09-09T05:16:27;13.20;99.90
38458;DHT22;24239;48.058;10.486;2022-09-09T05:18:53;13.20;99.90
38458;DHT22;24239;48.058;10.486;2022-09-09T05:21:20;13.30;99.90
38458;DHT22;24239;48.058;10.486;2022-09-09T05:23:47;13.40;99.90
38458;DHT22;24239;48.058;10.486;2022-09-09T05:26:17;13.60;99.90
38458;DHT22;24239;48.058;10.486;2022-09-09T05:28:43;13.80;99.90
38458;DHT22;24239;48.058;10.486;2022-09-09T05:31:11;13.90;99.90
38458;DHT22;24239;48.058;10.486;2022-09-09T05:33:39;14.10;99.90
38458;DHT22;24239;48.058;10.486;2022-09-09T05:36:11;14.30;99.90
38458;DHT22;24239;48.058;10.486;2022-09-09T05:38:39;14.50;99.90
38458;DHT22;24239;48.058;10.486;2022-09-09T05:41:06;14.60;99.90
38458;DHT22;24239;48.058;10.486;2022-09-09T05:43:33;14.50;99.90
38458;DHT22;24239;48.058;10.486;2022-09-09T05:46:02;14.60;99.90
38458;DHT22;24239;48.058;10.486;2022-09-09T05:48:31;14.60;99.90
38458;DHT22;24239;48.058;10.486;2022-09-09T05:50:58;14.70;99.90
38458;DHT22;24239;48.058;10.486;2022-09-09T05:53:25;14.60;99.90
38458;DHT22;24239;48.058;10.486;2022-09-09T05:56:04;14.60;99.90
38458;DHT22;24239;48.058;10.486;2022-09-09T05:58:31;14.50;99.90
38458;DHT22;24239;48.058;10.486;2022-09-09T06:01:20;14.60;99.90
38458;DHT22;24239;48.058;10.486;2022-09-09T06:03:47;14.60;99.90
38458;DHT22;24239;48.058;10.486;2022-09-09T06:06:15;14.60;99.90
38458;DHT22;24239;48.058;10.486;2022-09-09T06:08:44;14.70;99.90
38458;DHT22;24239;48.058;10.486;2022-09-09T06:11:15;14.70;99.90
38458;DHT22;24239;48.058;10.486;2022-09-09T06:13:42;14.70;99.90
38458;DHT22;24239;48.058;10.486;2022-09-09T06:16:09;14.80;99.90
38458;DHT22;24239;48.058;10.486;2022-09-09T06:18:37;14.90;99.90
38458;DHT22;24239;48.058;10.486;2022-09-09T06:21:05;14.90;99.90
38458;DHT22;24239;48.058;10.486;2022-09-09T06:23:33;15.00;99.90
38458;DHT22;24239;48.058;10.486;2022-09-09T06:28:39;15.10;99.90
38458;DHT22;24239;48.058;10.486;2022-09-09T06:31:07;15.10;99.90
38458;DHT22;24239;48.058;10.486;2022-09-09T06:33:35;15.30;99.90
38458;DHT22;24239;48.058;10.486;2022-09-09T06:36:02;15.30;99.90
38458;DHT22;24239;48.058;10.486;2022-09-09T06:38:29;15.40;99.90
38458;DHT22;24239;48.058;10.486;2022-09-09T06:40:57;15.40;99.90
38458;DHT22;24239;48.058;10.486;2022-09-09T06:43:24;15.50;99.90
38458;DHT22;24239;48.058;10.486;2022-09-09T06:48:44;15.40;99.90
38458;DHT22;24239;48.058;10.486;2022-09-09T06:51:17;15.40;99.90
38458;DHT22;24239;48.058;10.486;2022-09-09T06:53:44;15.50;99.90
38458;DHT22;24239;48.058;10.486;2022-09-09T06:58:40;15.40;99.90
38458;DHT22;24239;48.058;10.486;2022-09-09T07:01:14;15.50;99.90
38458;DHT22;24239;48.058;10.486;2022-09-09T07:03:41;15.50;99.90
38458;DHT22;24239;48.058;10.486;2022-09-09T07:06:12;15.50;99.90
38458;DHT22;24239;48.058;10.486;2022-09-09T07:08:40;15.50;99.90
38458;DHT22;24239;48.058;10.486;2022-09-09T07:11:08;15.60;99.90
38458;DHT22;24239;48.058;10.486;2022-09-09T07:13:35;15.50;99.90
38458;DHT22;24239;48.058;10.486;2022-09-09T07:16:05;15.60;99.90
38458;DHT22;24239;48.058;10.486;2022-09-09T07:18:31;15.70;99.90
38458;DHT22;24239;48.058;10.486;2022-09-09T07:21:00;15.70;99.90
38458;DHT22;24239;48.058;10.486;2022-09-09T07:23:28;15.80;99.90
38458;DHT22;24239;48.058;10.486;2022-09-09T07:25:57;15.90;99.90
38458;DHT22;24239;48.058;10.486;2022-09-09T07:28:25;16.00;99.90
38458;DHT22;24239;48.058;10.486;2022-09-09T07:30:58;16.00;99.90
38458;DHT22;24239;48.058;10.486;2022-09-09T07:33:24;16.10;99.90
38458;DHT22;24239;48.058;10.486;2022-09-09T07:35:51;16.10;99.90
38458;DHT22;24239;48.058;10.486;2022-09-09T07:38:18;16.20;99.90
38458;DHT22;24239;48.058;10.486;2022-09-09T07:40:48;16.30;99.90
38458;DHT22;24239;48.058;10.486;2022-09-09T07:43:14;16.30;99.90
38458;DHT22;24239;48.058;10.486;2022-09-09T07:45:42;16.40;99.90
38458;DHT22;24239;48.058;10.486;2022-09-09T07:48:11;16.40;99.90
38458;DHT22;24239;48.058;10.486;2022-09-09T07:50:37;16.50;99.90
38458;DHT22;24239;48.058;10.486;2022-09-09T07:53:03;16.50;99.90
38458;DHT22;24239;48.058;10.486;2022-09-09T07:55:31;16.50;99.90
38458;DHT22;24239;48.058;10.486;2022-09-09T07:57:56;16.70;99.90
38458;DHT22;24239;48.058;10.486;2022-09-09T08:00:22;16.80;99.90
38458;DHT22;24239;48.058;10.486;2022-09-09T08:02:49;16.80;99.90
38458;DHT22;24239;48.058;10.486;2022-09-09T08:05:17;16.80;99.90
38458;DHT22;24239;48.058;10.486;2022-09-09T08:07:46;17.00;99.90
38458;DHT22;24239;48.058;10.486;2022-09-09T08:10:12;17.10;99.90
38458;DHT22;24239;48.058;10.486;2022-09-09T08:12:40;17.30;99.90
38458;DHT22;24239;48.058;10.486;2022-09-09T08:15:06;17.40;99.90
38458;DHT22;24239;48.058;10.486;2022-09-09T08:17:32;17.50;99.90
38458;DHT22;24239;48.058;10.486;2022-09-09T08:19:58;17.50;99.90
38458;DHT22;24239;48.058;10.486;2022-09-09T08:22:28;17.50;99.90
38458;DHT22;24239;48.058;10.486;2022-09-09T08:24:54;17.50;99.90
38458;DHT22;24239;48.058;10.486;2022-09-09T08:27:20;17.60;99.90
38458;DHT22;24239;48.058;10.486;2022-09-09T08:29:46;17.60;99.90
38458;DHT22;24239;48.058;10.486;2022-09-09T08:32:14;17.30;99.90
38458;DHT22;24239;48.058;10.486;2022-09-09T08:34:42;17.30;99.90
38458;DHT22;24239;48.058;10.486;2022-09-09T08:37:07;17.40;99.90
38458;DHT22;24239;48.058;10.486;2022-09-09T08:39:33;17.50;99.90
38458;DHT22;24239;48.058;10.486;2022-09-09T08:42:03;17.40;99.90
38458;DHT22;24239;48.058;10.486;2022-09-09T08:50:03;17.40;99.90
38458;DHT22;24239;48.058;10.486;2022-09-09T08:55:40;17.40;99.90
38458;DHT22;24239;48.058;10.486;2022-09-09T09:08:36;17.20;99.90
38458;DHT22;24239;48.058;10.486;2022-09-09T09:11:04;17.30;99.90
38458;DHT22;24239;48.058;10.486;2022-09-09T09:13:48;17.30;99.90
38458;DHT22;24239;48.058;10.486;2022-09-09T09:18:58;17.30;99.90
38458;DHT22;24239;48.058;10.486;2022-09-09T09:21:42;17.40;99.90
38458;DHT22;24239;48.058;10.486;2022-09-09T09:24:32;17.30;99.90
38458;DHT22;24239;48.058;10.486;2022-09-09T09:27:14;17.50;99.90
38458;DHT22;24239;48.058;10.486;2022-09-09T09:29:40;17.50;99.90
38458;DHT22;24239;48.058;10.486;2022-09-09T09:32:13;17.50;99.90
38458;DHT22;24239;48.058;10.486;2022-09-09T09:34:39;17.60;99.90
38458;DHT22;24239;48.058;10.486;2022-09-09T09:37:31;17.60;99.90
38458;DHT22;24239;48.058;10.486;2022-09-09T09:40:11;17.50;99.90
38458;DHT22;24239;48.058;10.486;2022-09-09T09:42:47;17.50;99.90
38458;DHT22;24239;48.058;10.486;2022-09-09T09:45:33;17.40;99.90
38458;DHT22;24239;48.058;10.486;2022-09-09T09:48:09;17.40;99.90
38458;DHT22;24239;48.058;10.486;2022-09-09T09:50:50;17.60;99.90
38458;DHT22;24239;48.058;10.486;2022-09-09T09:53:24;17.50;99.90
38458;DHT22;24239;48.058;10.486;2022-09-09T09:58:29;17.60;99.90
38458;DHT22;24239;48.058;10.486;2022-09-09T10:00:57;17.80;99.90
38458;DHT22;24239;48.058;10.486;2022-09-09T10:03:30;17.80;99.90
38458;DHT22;24239;48.058;10.486;2022-09-09T10:05:56;18.10;99.90
38458;DHT22;24239;48.058;10.486;2022-09-09T10:08:24;18.20;99.90
38458;DHT22;24239;48.058;10.486;2022-09-09T10:19:27;18.30;99.90
38458;DHT22;24239;48.058;10.486;2022-09-09T10:27:21;18.90;99.90
38458;DHT22;24239;48.058;10.486;2022-09-09T10:30:05;19.10;99.90
38458;DHT22;24239;48.058;10.486;2022-09-09T10:40:39;19.30;99.90
38458;DHT22;24239;48.058;10.486;2022-09-09T10:57:17;19.30;99.90
38458;DHT22;24239;48.058;10.486;2022-09-09T10:59:48;19.50;99.90
38458;DHT22;24239;48.058;10.486;2022-09-09T11:02:29;19.60;99.90
38458;DHT22;24239;48.058;10.486;2022-09-09T11:04:56;19.70;99.90
38458;DHT22;24239;48.058;10.486;2022-09-09T11:07:44;19.80;99.90
38458;DHT22;24239;48.058;10.486;2022-09-09T11:10:24;19.90;99.90
38458;DHT22;24239;48.058;10.486;2022-09-09T11:12:54;20.00;99.90
38458;DHT22;24239;48.058;10.486;2022-09-09T11:16:03;19.90;99.90
38458;DHT22;24239;48.058;10.486;2022-09-09T11:18:31;19.70;99.90
38458;DHT22;24239;48.058;10.486;2022-09-09T11:21:04;19.70;99.90
38458;DHT22;24239;48.058;10.486;2022-09-09T11:23:52;19.90;99.90
38458;DHT22;24239;48.058;10.486;2022-09-09T11:26:28;20.00;99.90
38458;DHT22;24239;48.058;10.486;2022-09-09T11:42:19;19.70;99.90
38458;DHT22;24239;48.058;10.486;2022-09-09T11:44:45;19.70;99.90
38458;DHT22;24239;48.058;10.486;2022-09-09T11:49:47;19.70;99.90
38458;DHT22;24239;48.058;10.486;2022-09-09T11:52:36;20.00;99.90
38458;DHT22;24239;48.058;10.486;2022-09-09T11:55:10;20.00;99.90
38458;DHT22;24239;48.058;10.486;2022-09-09T11:57:38;20.10;99.90
38458;DHT22;24239;48.058;10.486;2022-09-09T12:00:05;20.20;99.90
38458;DHT22;24239;48.058;10.486;2022-09-09T12:02:31;20.30;99.90
38458;DHT22;24239;48.058;10.486;2022-09-09T12:05:08;20.60;99.90
38458;DHT22;24239;48.058;10.486;2022-09-09T12:07:41;20.80;99.90
38458;DHT22;24239;48.058;10.486;2022-09-09T12:10:26;20.70;99.90
38458;DHT22;24239;48.058;10.486;2022-09-09T12:12:52;20.40;99.90
38458;DHT22;24239;48.058;10.486;2022-09-09T12:15:27;20.00;99.90
38458;DHT22;24239;48.058;10.486;2022-09-09T12:17:57;19.80;99.90
38458;DHT22;24239;48.058;10.486;2022-09-09T12:20:38;19.70;99.90
38458;DHT22;24239;48.058;10.486;2022-09-09T12:23:27;19.80;99.90
38458;DHT22;24239;48.058;10.486;2022-09-09T12:26:06;19.90;99.90
38458;DHT22;24239;48.058;10.486;2022-09-09T12:28:56;20.00;99.90
38458;DHT22;24239;48.058;10.486;2022-09-09T12:31:44;20.10;99.90
38458;DHT22;24239;48.058;10.486;2022-09-09T12:51:50;20.20;99.90
38458;DHT22;24239;48.058;10.486;2022-09-09T12:54:16;20.20;99.90
38458;DHT22;24239;48.058;10.486;2022-09-09T12:56:45;19.90;99.90
38458;DHT22;24239;48.058;10.486;2022-09-09T12:59:26;19.90;99.90
38458;DHT22;24239;48.058;10.486;2022-09-09T13:01:59;19.80;99.90
38458;DHT22;24239;48.058;10.486;2022-09-09T13:04:27;19.70;99.90
38458;DHT22;24239;48.058;10.486;2022-09-09T13:06:53;19.60;99.90
38458;DHT22;24239;48.058;10.486;2022-09-09T13:09:21;19.40;99.90
38458;DHT22;24239;48.058;10.486;2022-09-09T13:11:53;19.40;99.90
38458;DHT22;24239;48.058;10.486;2022-09-09T13:14:31;19.40;99.90
38458;DHT22;24239;48.058;10.486;2022-09-09T13:17:02;19.60;99.90
38458;DHT22;24239;48.058;10.486;2022-09-09T13:19:35;19.30;99.90
38458;DHT22;24239;48.058;10.486;2022-09-09T13:25:02;19.10;99.90
38458;DHT22;24239;48.058;10.486;2022-09-09T13:27:37;19.00;99.90
38458;DHT22;24239;48.058;10.486;2022-09-09T13:35:53;19.50;99.90
38458;DHT22;24239;48.058;10.486;2022-09-09T13:38:22;19.60;99.90
38458;DHT22;24239;48.058;10.486;2022-09-09T13:43:23;20.20;99.90
38458;DHT22;24239;48.058;10.486;2022-09-09T13:45:58;20.40;99.90
38458;DHT22;24239;48.058;10.486;2022-09-09T13:48:25;20.40;99.90
38458;DHT22;24239;48.058;10.486;2022-09-09T13:51:00;20.40;99.90
38458;DHT22;24239;48.058;10.486;2022-09-09T13:53:26;20.30;99.90
38458;DHT22;24239;48.058;10.486;2022-09-09T13:55:53;20.30;99.90
38458;DHT22;24239;48.058;10.486;2022-09-09T13:58:19;20.20;99.90
38458;DHT22;24239;48.058;10.486;2022-09-09T14:00:45;20.20;99.90
38458;DHT22;24239;48.058;10.486;2022-09-09T14:03:12;20.30;99.90
38458;DHT22;24239;48.058;10.486;2022-09-09T14:05:38;20.40;99.90
38458;DHT22;24239;48.058;10.486;2022-09-09T14:08:07;20.50;99.90
38458;DHT22;24239;48.058;10.486;2022-09-09T14:10:33;20.60;99.90
38458;DHT22;24239;48.058;10.486;2022-09-09T14:13:03;20.80;99.90
38458;DHT22;24239;48.058;10.486;2022-09-09T14:15:29;21.10;99.90
38458;DHT22;24239;48.058;10.486;2022-09-09T14:17:54;21.00;99.90
38458;DHT22;24239;48.058;10.486;2022-09-09T14:20:21;20.90;99.90
38458;DHT22;24239;48.058;10.486;2022-09-09T14:22:46;20.90;99.90
38458;DHT22;24239;48.058;10.486;2022-09-09T14:25:12;20.90;99.90
38458;DHT22;24239;48.058;10.486;2022-09-09T14:27:39;21.00;99.90
38458;DHT22;24239;48.058;10.486;2022-09-09T14:30:06;21.20;99.90
38458;DHT22;24239;48.058;10.486;2022-09-09T14:32:32;21.30;99.90
38458;DHT22;24239;48.058;10.486;2022-09-09T14:34:58;21.10;99.90
38458;DHT22;24239;48.058;10.486;2022-09-09T14:37:24;21.10;99.90
38458;DHT22;24239;48.058;10.486;2022-09-09T14:39:51;21.00;99.90
38458;DHT22;24239;48.058;10.486;2022-09-09T14:42:17;21.00;99.90
38458;DHT22;24239;48.058;10.486;2022-09-09T14:44:45;20.90;99.90
38458;DHT22;24239;48.058;10.486;2022-09-09T14:47:11;21.00;99.90
38458;DHT22;24239;48.058;10.486;2022-09-09T14:49:37;21.10;99.90
38458;DHT22;24239;48.058;10.486;2022-09-09T14:52:04;21.10;99.90
38458;DHT22;24239;48.058;10.486;2022-09-09T14:54:31;20.90;99.90
38458;DHT22;24239;48.058;10.486;2022-09-09T14:56:57;20.90;99.90
38458;DHT22;24239;48.058;10.486;2022-09-09T14:59:23;20.70;99.90
38458;DHT22;24239;48.058;10.486;2022-09-09T15:01:49;20.70;99.90
38458;DHT22;24239;48.058;10.486;2022-09-09T15:04:15;20.60;99.90
38458;DHT22;24239;48.058;10.486;2022-09-09T15:06:42;20.40;99.90
38458;DHT22;24239;48.058;10.486;2022-09-09T15:09:12;20.40;99.90
38458;DHT22;24239;48.058;10.486;2022-09-09T15:11:41;20.40;99.90
38458;DHT22;24239;48.058;10.486;2022-09-09T15:14:08;20.30;99.90
38458;DHT22;24239;48.058;10.486;2022-09-09T15:16:35;20.30;99.90
38458;DHT22;24239;48.058;10.486;2022-09-09T15:19:02;20.50;99.90
38458;DHT22;24239;48.058;10.486;2022-09-09T15:21:30;20.60;99.90
38458;DHT22;24239;48.058;10.486;2022-09-09T15:23:57;20.70;99.90
38458;DHT22;24239;48.058;10.486;2022-09-09T15:26:23;20.60;99.90
38458;DHT22;24239;48.058;10.486;2022-09-09T15:28:49;20.40;99.90
38458;DHT22;24239;48.058;10.486;2022-09-09T15:31:20;20.30;99.90
38458;DHT22;24239;48.058;10.486;2022-09-09T15:33:50;20.10;99.90
38458;DHT22;24239;48.058;10.486;2022-09-09T15:38:46;20.00;99.90
38458;DHT22;24239;48.058;10.486;2022-09-09T15:41:13;20.00;99.90
38458;DHT22;24239;48.058;10.486;2022-09-09T15:43:43;20.00;99.90
38458;DHT22;24239;48.058;10.486;2022-09-09T15:46:23;19.90;99.90
38458;DHT22;24239;48.058;10.486;2022-09-09T15:48:50;19.90;99.90
38458;DHT22;24239;48.058;10.486;2022-09-09T15:51:19;19.90;99.90
38458;DHT22;24239;48.058;10.486;2022-09-09T15:53:45;19.80;99.90
38458;DHT22;24239;48.058;10.486;2022-09-09T15:56:11;19.80;99.90
38458;DHT22;24239;48.058;10.486;2022-09-09T15:58:37;19.70;99.90
38458;DHT22;24239;48.058;10.486;2022-09-09T16:01:07;19.80;99.90
38458;DHT22;24239;48.058;10.486;2022-09-09T16:03:37;19.90;99.90
38458;DHT22;24239;48.058;10.486;2022-09-09T16:06:05;19.90;99.90
38458;DHT22;24239;48.058;10.486;2022-09-09T16:08:36;19.90;99.90
38458;DHT22;24239;48.058;10.486;2022-09-09T16:11:16;19.90;99.90
38458;DHT22;24239;48.058;10.486;2022-09-09T16:13:43;20.00;99.90
38458;DHT22;24239;48.058;10.486;2022-09-09T16:16:11;20.00;99.90
38458;DHT22;24239;48.058;10.486;2022-09-09T16:18:40;20.00;99.90
38458;DHT22;24239;48.058;10.486;2022-09-09T16:21:11;20.10;99.90
38458;DHT22;24239;48.058;10.486;2022-09-09T16:23:41;20.50;99.90
38458;DHT22;24239;48.058;10.486;2022-09-09T16:26:10;21.20;99.90
38458;DHT22;24239;48.058;10.486;2022-09-09T16:28:36;22.10;99.90
38458;DHT22;24239;48.058;10.486;2022-09-09T16:31:10;22.70;99.90
38458;DHT22;24239;48.058;10.486;2022-09-09T16:33:37;23.00;99.90
38458;DHT22;24239;48.058;10.486;2022-09-09T16:36:13;22.90;99.90
38458;DHT22;24239;48.058;10.486;2022-09-09T16:38:40;22.50;99.90
38458;DHT22;24239;48.058;10.486;2022-09-09T16:41:07;21.90;99.90
38458;DHT22;24239;48.058;10.486;2022-09-09T16:43:34;21.50;99.90
38458;DHT22;24239;48.058;10.486;2022-09-09T16:46:14;21.00;99.90
38458;DHT22;24239;48.058;10.486;2022-09-09T16:48:42;20.50;99.90
38458;DHT22;24239;48.058;10.486;2022-09-09T16:53:40;19.80;99.90
38458;DHT22;24239;48.058;10.486;2022-09-09T16:56:09;19.50;99.90
38458;DHT22;24239;48.058;10.486;2022-09-09T16:58:35;19.40;99.90
38458;DHT22;24239;48.058;10.486;2022-09-09T17:01:04;19.30;99.90
38458;DHT22;24239;48.058;10.486;2022-09-09T17:03:31;19.00;99.90
38458;DHT22;24239;48.058;10.486;2022-09-09T17:05:59;18.80;99.90
38458;DHT22;24239;48.058;10.486;2022-09-09T17:08:29;18.50;99.90
38458;DHT22;24239;48.058;10.486;2022-09-09T17:10:55;18.30;99.90
38458;DHT22;24239;48.058;10.486;2022-09-09T17:13:21;18.20;99.90
38458;DHT22;24239;48.058;10.486;2022-09-09T17:15:47;18.00;99.90
38458;DHT22;24239;48.058;10.486;2022-09-09T17:18:13;17.70;99.90
38458;DHT22;24239;48.058;10.486;2022-09-09T17:20:40;17.60;99.90
38458;DHT22;24239;48.058;10.486;2022-09-09T17:23:08;17.40;99.90
38458;DHT22;24239;48.058;10.486;2022-09-09T17:25:36;17.30;99.90
38458;DHT22;24239;48.058;10.486;2022-09-09T17:28:03;17.20;99.90
38458;DHT22;24239;48.058;10.486;2022-09-09T17:30:38;17.00;99.90
38458;DHT22;24239;48.058;10.486;2022-09-09T17:33:08;16.90;99.90
38458;DHT22;24239;48.058;10.486;2022-09-09T17:35:34;16.80;99.90
38458;DHT22;24239;48.058;10.486;2022-09-09T17:38:00;16.80;99.90
38458;DHT22;24239;48.058;10.486;2022-09-09T17:40:25;16.70;99.90
38458;DHT22;24239;48.058;10.486;2022-09-09T17:42:52;16.70;99.90
38458;DHT22;24239;48.058;10.486;2022-09-09T17:45:18;16.60;99.90
38458;DHT22;24239;48.058;10.486;2022-09-09T17:47:44;16.60;99.90
38458;DHT22;24239;48.058;10.486;2022-09-09T17:50:13;16.50;99.90
38458;DHT22;24239;48.058;10.486;2022-09-09T17:52:39;16.40;99.90
38458;DHT22;24239;48.058;10.486;2022-09-09T17:55:06;16.30;99.90
38458;DHT22;24239;48.058;10.486;2022-09-09T17:57:34;16.20;99.90
38458;DHT22;24239;48.058;10.486;2022-09-09T18:00:01;16.10;99.90
38458;DHT22;24239;48.058;10.486;2022-09-09T18:02:26;16.00;99.90
38458;DHT22;24239;48.058;10.486;2022-09-09T18:04:52;15.90;99.90
38458;DHT22;24239;48.058;10.486;2022-09-09T18:07:18;15.80;99.90
38458;DHT22;24239;48.058;10.486;2022-09-09T18:09:44;15.70;99.90
38458;DHT22;24239;48.058;10.486;2022-09-09T18:12:11;15.70;99.90
38458;DHT22;24239;48.058;10.486;2022-09-09T18:14:37;15.60;99.90
38458;DHT22;24239;48.058;10.486;2022-09-09T18:17:03;15.50;99.90
38458;DHT22;24239;48.058;10.486;2022-09-09T18:19:30;15.40;99.90